sensor_id;sensor_type;location;lat;lon;timestamp;temperature;humidity
84791;DHT22;75024;43.486;3.794;2024-01-15T00:02:05;10.20;55.00
84791;DHT22;75024;43.486;3.794;2024-01-15T00:04:36;10.10;55.60
84791;DHT22;75024;43.486;3.794;2024-01-15T00:07:01;10.00;55.80
84791;DHT22;75024;43.486;3.794;2024-01-15T00:09:27;10.10;55.70
84791;DHT22;75024;43.486;3.794;2024-01-15T00:11:53;10.10;55.70
84791;DHT22;75024;43.486;3.794;2024-01-15T00:14:18;10.10;55.80
84791;DHT22;75024;43.486;3.794;2024-01-15T00:16:45;10.10;55.90
84791;DHT22;75024;43.486;3.794;2024-01-15T00:19:11;10.10;55.90
84791;DHT22;75024;43.486;3.794;2024-01-15T00:21:37;10.10;55.70
84791;DHT22;75024;43.486;3.794;2024-01-15T00:24:02;10.10;55.80
84791;DHT22;75024;43.486;3.794;2024-01-15T00:26:28;10.20;55.30
84791;DHT22;75024;43.486;3.794;2024-01-15T00:28:54;10.20;55.20
84791;DHT22;75024;43.486;3.794;2024-01-15T00:31:19;10.30;54.80
84791;DHT22;75024;43.486;3.794;2024-01-15T00:33:45;10.30;55.00
84791;DHT22;75024;43.486;3.794;2024-01-15T00:36:11;10.30;54.50
84791;DHT22;75024;43.486;3.794;2024-01-15T00:38:37;10.20;54.90
84791;DHT22;75024;43.486;3.794;2024-01-15T00:41:03;10.20;55.30
84791;DHT22;75024;43.486;3.794;2024-01-15T00:43:28;10.20;54.80
84791;DHT22;75024;43.486;3.794;2024-01-15T00:45:54;10.10;55.40
84791;DHT22;75024;43.486;3.794;2024-01-15T00:48:19;10.00;55.90
84791;DHT22;75024;43.486;3.794;2024-01-15T00:50:45;10.10;55.20
84791;DHT22;75024;43.486;3.794;2024-01-15T00:53:11;10.10;55.60
84791;DHT22;75024;43.486;3.794;2024-01-15T00:55:36;10.20;55.00
84791;DHT22;75024;43.486;3.794;2024-01-15T00:58:03;10.20;54.70
84791;DHT22;75024;43.486;3.794;2024-01-15T01:00:29;10.20;54.90
84791;DHT22;75024;43.486;3.794;2024-01-15T01:02:55;10.10;54.90
84791;DHT22;75024;43.486;3.794;2024-01-15T01:05:20;10.20;54.60
84791;DHT22;75024;43.486;3.794;2024-01-15T01:07:46;10.30;54.30
84791;DHT22;75024;43.486;3.794;2024-01-15T01:10:12;10.20;54.60
84791;DHT22;75024;43.486;3.794;2024-01-15T01:12:37;10.20;54.60
84791;DHT22;75024;43.486;3.794;2024-01-15T01:15:03;10.10;55.00
84791;DHT22;75024;43.486;3.794;2024-01-15T01:17:29;10.00;55.20
84791;DHT22;75024;43.486;3.794;2024-01-15T01:19:56;10.00;55.00
84791;DHT22;75024;43.486;3.794;2024-01-15T01:22:21;10.10;54.70
84791;DHT22;75024;43.486;3.794;2024-01-15T01:24:47;10.00;54.60
84791;DHT22;75024;43.486;3.794;2024-01-15T01:27:13;9.90;55.20
84791;DHT22;75024;43.486;3.794;2024-01-15T01:29:38;9.80;55.40
84791;DHT22;75024;43.486;3.794;2024-01-15T01:32:04;9.80;55.40
84791;DHT22;75024;43.486;3.794;2024-01-15T01:34:32;9.60;56.10
84791;DHT22;75024;43.486;3.794;2024-01-15T01:36:58;9.60;56.00
84791;DHT22;75024;43.486;3.794;2024-01-15T01:39:23;9.60;56.30
84791;DHT22;75024;43.486;3.794;2024-01-15T01:41:49;9.50;56.30
84791;DHT22;75024;43.486;3.794;2024-01-15T01:44:14;9.50;56.00
84791;DHT22;75024;43.486;3.794;2024-01-15T01:46:41;9.50;56.20
84791;DHT22;75024;43.486;3.794;2024-01-15T01:49:08;9.50;56.20
84791;DHT22;75024;43.486;3.794;2024-01-15T01:51:35;9.50;56.60
84791;DHT22;75024;43.486;3.794;2024-01-15T01:54:01;9.40;56.70
84791;DHT22;75024;43.486;3.794;2024-01-15T01:56:27;9.40;56.30
84791;DHT22;75024;43.486;3.794;2024-01-15T01:58:54;9.20;57.00
84791;DHT22;75024;43.486;3.794;2024-01-15T02:01:19;9.30;56.10
84791;DHT22;75024;43.486;3.794;2024-01-15T02:03:45;9.20;56.10
84791;DHT22;75024;43.486;3.794;2024-01-15T02:06:11;9.20;56.10
84791;DHT22;75024;43.486;3.794;2024-01-15T02:08:37;9.30;55.80
84791;DHT22;75024;43.486;3.794;2024-01-15T02:11:03;9.30;55.70
84791;DHT22;75024;43.486;3.794;2024-01-15T02:13:29;9.40;55.40
84791;DHT22;75024;43.486;3.794;2024-01-15T02:15:55;9.30;55.60
84791;DHT22;75024;43.486;3.794;2024-01-15T02:18:20;9.40;55.30
84791;DHT22;75024;43.486;3.794;2024-01-15T02:20:46;9.40;55.30
84791;DHT22;75024;43.486;3.794;2024-01-15T02:23:13;9.40;55.10
84791;DHT22;75024;43.486;3.794;2024-01-15T02:25:46;9.40;55.50
84791;DHT22;75024;43.486;3.794;2024-01-15T02:28:14;9.40;55.10
84791;DHT22;75024;43.486;3.794;2024-01-15T02:30:41;9.40;55.00
84791;DHT22;75024;43.486;3.794;2024-01-15T02:33:07;9.30;54.60
84791;DHT22;75024;43.486;3.794;2024-01-15T02:35:33;9.40;54.10
84791;DHT22;75024;43.486;3.794;2024-01-15T02:38:02;9.40;54.20
84791;DHT22;75024;43.486;3.794;2024-01-15T02:40:28;9.40;54.60
84791;DHT22;75024;43.486;3.794;2024-01-15T02:42:54;9.30;54.60
84791;DHT22;75024;43.486;3.794;2024-01-15T02:45:21;9.20;55.10
84791;DHT22;75024;43.486;3.794;2024-01-15T02:47:46;9.10;55.10
84791;DHT22;75024;43.486;3.794;2024-01-15T02:50:12;9.00;55.70
84791;DHT22;75024;43.486;3.794;2024-01-15T02:52:38;9.00;55.60
84791;DHT22;75024;43.486;3.794;2024-01-15T02:55:04;9.10;55.10
84791;DHT22;75024;43.486;3.794;2024-01-15T02:57:30;9.10;55.20
84791;DHT22;75024;43.486;3.794;2024-01-15T02:59:55;9.20;54.30
84791;DHT22;75024;43.486;3.794;2024-01-15T03:02:21;9.30;53.90
84791;DHT22;75024;43.486;3.794;2024-01-15T03:04:47;9.30;53.80
84791;DHT22;75024;43.486;3.794;2024-01-15T03:07:13;9.30;53.80
84791;DHT22;75024;43.486;3.794;2024-01-15T03:09:38;9.40;53.50
84791;DHT22;75024;43.486;3.794;2024-01-15T03:12:04;9.40;53.60
84791;DHT22;75024;43.486;3.794;2024-01-15T03:14:30;9.40;53.40
84791;DHT22;75024;43.486;3.794;2024-01-15T03:16:56;9.40;53.50
84791;DHT22;75024;43.486;3.794;2024-01-15T03:19:21;9.30;53.90
84791;DHT22;75024;43.486;3.794;2024-01-15T03:21:47;9.40;53.60
84791;DHT22;75024;43.486;3.794;2024-01-15T03:24:13;9.50;53.50
84791;DHT22;75024;43.486;3.794;2024-01-15T03:26:39;9.50;53.30
84791;DHT22;75024;43.486;3.794;2024-01-15T03:29:04;9.60;52.90
84791;DHT22;75024;43.486;3.794;2024-01-15T03:31:30;9.80;52.40
84791;DHT22;75024;43.486;3.794;2024-01-15T03:33:56;9.80;52.20
84791;DHT22;75024;43.486;3.794;2024-01-15T03:36:22;9.70;52.30
84791;DHT22;75024;43.486;3.794;2024-01-15T03:38:47;9.70;52.30
84791;DHT22;75024;43.486;3.794;2024-01-15T03:41:13;9.80;52.20
84791;DHT22;75024;43.486;3.794;2024-01-15T03:43:39;9.70;52.50
84791;DHT22;75024;43.486;3.794;2024-01-15T03:46:05;9.60;52.70
84791;DHT22;75024;43.486;3.794;2024-01-15T03:48:31;9.70;52.00
84791;DHT22;75024;43.486;3.794;2024-01-15T03:50:57;9.70;52.10
84791;DHT22;75024;43.486;3.794;2024-01-15T03:53:22;9.70;52.80
84791;DHT22;75024;43.486;3.794;2024-01-15T03:55:48;9.70;52.40
84791;DHT22;75024;43.486;3.794;2024-01-15T03:58:14;9.70;52.70
84791;DHT22;75024;43.486;3.794;2024-01-15T04:00:43;9.70;52.80
84791;DHT22;75024;43.486;3.794;2024-01-15T04:03:09;9.60;53.20
84791;DHT22;75024;43.486;3.794;2024-01-15T04:05:34;9.40;53.90
84791;DHT22;75024;43.486;3.794;2024-01-15T04:08:00;9.40;54.20
84791;DHT22;75024;43.486;3.794;2024-01-15T04:10:26;9.30;54.40
84791;DHT22;75024;43.486;3.794;2024-01-15T04:12:52;9.30;54.10
84791;DHT22;75024;43.486;3.794;2024-01-15T04:15:17;9.30;54.30
84791;DHT22;75024;43.486;3.794;2024-01-15T04:17:43;9.30;54.20
84791;DHT22;75024;43.486;3.794;2024-01-15T04:20:09;9.30;54.60
84791;DHT22;75024;43.486;3.794;2024-01-15T04:22:35;9.30;54.10
84791;DHT22;75024;43.486;3.794;2024-01-15T04:25:01;9.20;54.30
84791;DHT22;75024;43.486;3.794;2024-01-15T04:27:27;9.30;54.10
84791;DHT22;75024;43.486;3.794;2024-01-15T04:29:53;9.30;54.10
84791;DHT22;75024;43.486;3.794;2024-01-15T04:32:19;9.40;54.10
84791;DHT22;75024;43.486;3.794;2024-01-15T04:34:44;9.30;54.10
84791;DHT22;75024;43.486;3.794;2024-01-15T04:37:10;9.30;54.20
84791;DHT22;75024;43.486;3.794;2024-01-15T04:39:36;9.30;54.40
84791;DHT22;75024;43.486;3.794;2024-01-15T04:42:02;9.10;54.90
84791;DHT22;75024;43.486;3.794;2024-01-15T04:44:28;9.10;55.40
84791;DHT22;75024;43.486;3.794;2024-01-15T04:46:53;9.00;55.30
84791;DHT22;75024;43.486;3.794;2024-01-15T04:49:19;9.10;55.30
84791;DHT22;75024;43.486;3.794;2024-01-15T04:51:45;9.10;55.40
84791;DHT22;75024;43.486;3.794;2024-01-15T04:54:10;9.10;55.50
84791;DHT22;75024;43.486;3.794;2024-01-15T04:56:36;9.20;55.20
84791;DHT22;75024;43.486;3.794;2024-01-15T04:59:02;9.40;54.90
84791;DHT22;75024;43.486;3.794;2024-01-15T05:01:31;9.40;55.00
84791;DHT22;75024;43.486;3.794;2024-01-15T05:03:58;9.50;55.10
84791;DHT22;75024;43.486;3.794;2024-01-15T05:06:23;9.50;55.00
84791;DHT22;75024;43.486;3.794;2024-01-15T05:08:49;9.40;55.20
84791;DHT22;75024;43.486;3.794;2024-01-15T05:11:14;9.40;55.50
84791;DHT22;75024;43.486;3.794;2024-01-15T05:13:40;9.30;55.70
84791;DHT22;75024;43.486;3.794;2024-01-15T05:16:06;9.20;55.70
84791;DHT22;75024;43.486;3.794;2024-01-15T05:18:32;9.20;56.20
84791;DHT22;75024;43.486;3.794;2024-01-15T05:20:57;9.10;56.50
84791;DHT22;75024;43.486;3.794;2024-01-15T05:23:23;9.00;57.10
84791;DHT22;75024;43.486;3.794;2024-01-15T05:25:48;8.90;57.20
84791;DHT22;75024;43.486;3.794;2024-01-15T05:28:14;8.90;57.30
84791;DHT22;75024;43.486;3.794;2024-01-15T05:30:40;8.80;57.80
84791;DHT22;75024;43.486;3.794;2024-01-15T05:33:06;8.80;57.70
84791;DHT22;75024;43.486;3.794;2024-01-15T05:35:33;8.90;57.40
84791;DHT22;75024;43.486;3.794;2024-01-15T05:37:58;8.90;57.60
84791;DHT22;75024;43.486;3.794;2024-01-15T05:40:24;8.80;57.60
84791;DHT22;75024;43.486;3.794;2024-01-15T05:42:50;8.80;57.80
84791;DHT22;75024;43.486;3.794;2024-01-15T05:45:16;8.70;58.30
84791;DHT22;75024;43.486;3.794;2024-01-15T05:47:41;8.60;58.60
84791;DHT22;75024;43.486;3.794;2024-01-15T05:50:08;8.50;58.80
84791;DHT22;75024;43.486;3.794;2024-01-15T05:52:33;8.50;59.60
84791;DHT22;75024;43.486;3.794;2024-01-15T05:54:59;8.40;60.00
84791;DHT22;75024;43.486;3.794;2024-01-15T05:57:25;8.40;59.60
84791;DHT22;75024;43.486;3.794;2024-01-15T05:59:50;8.40;59.80
84791;DHT22;75024;43.486;3.794;2024-01-15T06:02:16;8.40;60.40
84791;DHT22;75024;43.486;3.794;2024-01-15T06:04:42;8.30;61.30
84791;DHT22;75024;43.486;3.794;2024-01-15T06:07:07;8.20;62.00
84791;DHT22;75024;43.486;3.794;2024-01-15T06:09:33;8.20;61.40
84791;DHT22;75024;43.486;3.794;2024-01-15T06:11:59;8.30;60.50
84791;DHT22;75024;43.486;3.794;2024-01-15T06:14:24;8.60;59.70
84791;DHT22;75024;43.486;3.794;2024-01-15T06:16:50;8.70;59.00
84791;DHT22;75024;43.486;3.794;2024-01-15T06:19:16;8.90;58.50
84791;DHT22;75024;43.486;3.794;2024-01-15T06:21:41;8.90;58.50
84791;DHT22;75024;43.486;3.794;2024-01-15T06:24:07;8.90;58.80
84791;DHT22;75024;43.486;3.794;2024-01-15T06:26:35;8.80;59.00
84791;DHT22;75024;43.486;3.794;2024-01-15T06:29:00;8.80;59.20
84791;DHT22;75024;43.486;3.794;2024-01-15T06:31:26;8.70;59.50
84791;DHT22;75024;43.486;3.794;2024-01-15T06:33:52;8.70;59.80
84791;DHT22;75024;43.486;3.794;2024-01-15T06:36:17;8.60;60.00
84791;DHT22;75024;43.486;3.794;2024-01-15T06:38:43;8.60;60.10
84791;DHT22;75024;43.486;3.794;2024-01-15T06:41:10;8.60;60.10
84791;DHT22;75024;43.486;3.794;2024-01-15T06:43:35;8.70;60.10
84791;DHT22;75024;43.486;3.794;2024-01-15T06:46:01;8.60;60.30
84791;DHT22;75024;43.486;3.794;2024-01-15T06:48:27;8.60;60.40
84791;DHT22;75024;43.486;3.794;2024-01-15T06:50:52;8.70;60.20
84791;DHT22;75024;43.486;3.794;2024-01-15T06:53:18;8.60;60.70
84791;DHT22;75024;43.486;3.794;2024-01-15T06:55:44;8.60;60.30
84791;DHT22;75024;43.486;3.794;2024-01-15T06:58:09;8.70;60.10
84791;DHT22;75024;43.486;3.794;2024-01-15T07:00:35;8.70;59.90
84791;DHT22;75024;43.486;3.794;2024-01-15T07:03:00;8.70;60.00
84791;DHT22;75024;43.486;3.794;2024-01-15T07:05:26;8.60;60.20
84791;DHT22;75024;43.486;3.794;2024-01-15T07:07:52;8.60;60.20
84791;DHT22;75024;43.486;3.794;2024-01-15T07:10:17;8.50;60.30
84791;DHT22;75024;43.486;3.794;2024-01-15T07:12:43;8.40;60.80
84791;DHT22;75024;43.486;3.794;2024-01-15T07:15:09;8.20;61.50
84791;DHT22;75024;43.486;3.794;2024-01-15T07:17:35;8.20;61.60
84791;DHT22;75024;43.486;3.794;2024-01-15T07:20:01;8.10;61.90
84791;DHT22;75024;43.486;3.794;2024-01-15T07:22:27;8.10;62.00
84791;DHT22;75024;43.486;3.794;2024-01-15T07:24:52;8.00;62.20
84791;DHT22;75024;43.486;3.794;2024-01-15T07:27:18;8.00;62.40
84791;DHT22;75024;43.486;3.794;2024-01-15T07:29:44;7.90;62.50
84791;DHT22;75024;43.486;3.794;2024-01-15T07:32:10;7.90;62.70
84791;DHT22;75024;43.486;3.794;2024-01-15T07:34:35;7.80;63.10
84791;DHT22;75024;43.486;3.794;2024-01-15T07:37:02;7.80;63.20
84791;DHT22;75024;43.486;3.794;2024-01-15T07:39:27;7.70;63.30
84791;DHT22;75024;43.486;3.794;2024-01-15T07:41:54;7.90;63.10
84791;DHT22;75024;43.486;3.794;2024-01-15T07:44:20;7.80;63.50
84791;DHT22;75024;43.486;3.794;2024-01-15T07:46:48;7.70;64.00
84791;DHT22;75024;43.486;3.794;2024-01-15T07:49:14;7.60;64.60
84791;DHT22;75024;43.486;3.794;2024-01-15T07:51:40;7.50;64.80
84791;DHT22;75024;43.486;3.794;2024-01-15T07:54:06;7.40;65.30
84791;DHT22;75024;43.486;3.794;2024-01-15T07:56:33;7.50;64.90
84791;DHT22;75024;43.486;3.794;2024-01-15T07:58:58;7.50;65.00
84791;DHT22;75024;43.486;3.794;2024-01-15T08:01:24;7.50;65.40
84791;DHT22;75024;43.486;3.794;2024-01-15T08:03:50;7.50;65.40
84791;DHT22;75024;43.486;3.794;2024-01-15T08:06:15;7.50;65.60
84791;DHT22;75024;43.486;3.794;2024-01-15T08:08:41;7.50;65.80
84791;DHT22;75024;43.486;3.794;2024-01-15T08:11:07;7.50;66.10
84791;DHT22;75024;43.486;3.794;2024-01-15T08:13:32;7.50;66.50
84791;DHT22;75024;43.486;3.794;2024-01-15T08:15:58;7.60;65.80
84791;DHT22;75024;43.486;3.794;2024-01-15T08:18:24;7.70;65.30
84791;DHT22;75024;43.486;3.794;2024-01-15T08:20:50;7.90;64.90
84791;DHT22;75024;43.486;3.794;2024-01-15T08:23:17;8.20;63.90
84791;DHT22;75024;43.486;3.794;2024-01-15T08:25:43;8.10;64.30
84791;DHT22;75024;43.486;3.794;2024-01-15T08:28:09;8.10;65.00
84791;DHT22;75024;43.486;3.794;2024-01-15T08:30:34;8.30;64.70
84791;DHT22;75024;43.486;3.794;2024-01-15T08:33:00;8.60;64.00
84791;DHT22;75024;43.486;3.794;2024-01-15T08:35:26;8.40;64.40
84791;DHT22;75024;43.486;3.794;2024-01-15T08:37:54;8.60;63.90
84791;DHT22;75024;43.486;3.794;2024-01-15T08:40:20;8.70;63.80
84791;DHT22;75024;43.486;3.794;2024-01-15T08:42:46;8.80;63.90
84791;DHT22;75024;43.486;3.794;2024-01-15T08:45:12;8.80;64.00
84791;DHT22;75024;43.486;3.794;2024-01-15T08:47:38;8.90;64.00
84791;DHT22;75024;43.486;3.794;2024-01-15T08:50:04;9.00;63.70
84791;DHT22;75024;43.486;3.794;2024-01-15T08:52:30;9.20;63.10
84791;DHT22;75024;43.486;3.794;2024-01-15T08:54:56;9.30;64.40
84791;DHT22;75024;43.486;3.794;2024-01-15T08:57:22;10.50;61.90
84791;DHT22;75024;43.486;3.794;2024-01-15T08:59:48;10.60;61.20
84791;DHT22;75024;43.486;3.794;2024-01-15T09:02:14;10.70;60.80
84791;DHT22;75024;43.486;3.794;2024-01-15T09:04:40;10.70;60.70
84791;DHT22;75024;43.486;3.794;2024-01-15T09:07:07;10.90;60.60
84791;DHT22;75024;43.486;3.794;2024-01-15T09:09:32;11.00;60.30
84791;DHT22;75024;43.486;3.794;2024-01-15T09:11:59;11.20;60.30
84791;DHT22;75024;43.486;3.794;2024-01-15T09:14:25;11.40;59.80
84791;DHT22;75024;43.486;3.794;2024-01-15T09:16:52;11.50;59.20
84791;DHT22;75024;43.486;3.794;2024-01-15T09:19:18;11.60;59.20
84791;DHT22;75024;43.486;3.794;2024-01-15T09:21:44;11.50;59.60
84791;DHT22;75024;43.486;3.794;2024-01-15T09:24:10;11.60;59.80
84791;DHT22;75024;43.486;3.794;2024-01-15T09:26:36;11.80;59.00
84791;DHT22;75024;43.486;3.794;2024-01-15T09:29:02;11.60;59.60
84791;DHT22;75024;43.486;3.794;2024-01-15T09:31:28;11.60;59.30
84791;DHT22;75024;43.486;3.794;2024-01-15T09:33:54;11.40;59.50
84791;DHT22;75024;43.486;3.794;2024-01-15T09:36:24;11.10;60.10
84791;DHT22;75024;43.486;3.794;2024-01-15T09:38:51;11.00;60.60
84791;DHT22;75024;43.486;3.794;2024-01-15T09:41:16;10.90;60.90
84791;DHT22;75024;43.486;3.794;2024-01-15T09:43:42;10.90;61.30
84791;DHT22;75024;43.486;3.794;2024-01-15T09:46:08;11.00;61.00
84791;DHT22;75024;43.486;3.794;2024-01-15T09:48:34;10.90;61.40
84791;DHT22;75024;43.486;3.794;2024-01-15T09:51:04;11.00;61.80
84791;DHT22;75024;43.486;3.794;2024-01-15T09:53:31;11.00;61.80
84791;DHT22;75024;43.486;3.794;2024-01-15T09:55:58;11.20;61.70
84791;DHT22;75024;43.486;3.794;2024-01-15T09:58:23;11.40;61.60
84791;DHT22;75024;43.486;3.794;2024-01-15T10:00:50;11.60;61.10
84791;DHT22;75024;43.486;3.794;2024-01-15T10:03:17;11.30;61.90
84791;DHT22;75024;43.486;3.794;2024-01-15T10:05:43;11.50;62.10
84791;DHT22;75024;43.486;3.794;2024-01-15T10:08:09;11.30;62.80
84791;DHT22;75024;43.486;3.794;2024-01-15T10:10:36;11.50;62.50
84791;DHT22;75024;43.486;3.794;2024-01-15T10:13:04;11.60;62.40
84791;DHT22;75024;43.486;3.794;2024-01-15T10:15:34;11.60;63.00
84791;DHT22;75024;43.486;3.794;2024-01-15T10:18:02;12.20;60.60
84791;DHT22;75024;43.486;3.794;2024-01-15T10:20:28;12.00;60.20
84791;DHT22;75024;43.486;3.794;2024-01-15T10:22:53;11.80;61.60
84791;DHT22;75024;43.486;3.794;2024-01-15T10:25:19;12.20;61.40
84791;DHT22;75024;43.486;3.794;2024-01-15T10:28:02;12.70;60.30
84791;DHT22;75024;43.486;3.794;2024-01-15T10:30:29;12.70;60.00
84791;DHT22;75024;43.486;3.794;2024-01-15T10:33:03;12.70;60.00
84791;DHT22;75024;43.486;3.794;2024-01-15T10:35:30;12.70;60.10
84791;DHT22;75024;43.486;3.794;2024-01-15T10:37:56;12.90;59.80
84791;DHT22;75024;43.486;3.794;2024-01-15T10:40:22;12.90;59.40
84791;DHT22;75024;43.486;3.794;2024-01-15T10:42:47;12.90;59.40
84791;DHT22;75024;43.486;3.794;2024-01-15T10:45:14;12.70;59.90
84791;DHT22;75024;43.486;3.794;2024-01-15T10:47:40;12.50;60.10
84791;DHT22;75024;43.486;3.794;2024-01-15T10:50:07;12.60;60.30
84791;DHT22;75024;43.486;3.794;2024-01-15T10:52:35;12.80;59.80
84791;DHT22;75024;43.486;3.794;2024-01-15T10:55:02;12.90;58.80
84791;DHT22;75024;43.486;3.794;2024-01-15T10:57:29;13.10;58.50
84791;DHT22;75024;43.486;3.794;2024-01-15T10:59:55;13.20;57.80
84791;DHT22;75024;43.486;3.794;2024-01-15T11:02:21;13.00;57.90
84791;DHT22;75024;43.486;3.794;2024-01-15T11:04:47;12.80;57.70
84791;DHT22;75024;43.486;3.794;2024-01-15T11:07:14;12.90;58.70
84791;DHT22;75024;43.486;3.794;2024-01-15T11:09:39;13.20;58.40
84791;DHT22;75024;43.486;3.794;2024-01-15T11:12:12;12.90;59.20
84791;DHT22;75024;43.486;3.794;2024-01-15T11:14:45;12.70;59.50
84791;DHT22;75024;43.486;3.794;2024-01-15T11:17:11;12.80;59.70
84791;DHT22;75024;43.486;3.794;2024-01-15T11:22:08;12.60;60.00
84791;DHT22;75024;43.486;3.794;2024-01-15T11:24:41;12.40;61.00
84791;DHT22;75024;43.486;3.794;2024-01-15T11:27:07;12.40;60.90
84791;DHT22;75024;43.486;3.794;2024-01-15T11:29:35;12.50;60.30
84791;DHT22;75024;43.486;3.794;2024-01-15T11:32:10;12.50;60.60
84791;DHT22;75024;43.486;3.794;2024-01-15T11:34:52;12.50;60.70
84791;DHT22;75024;43.486;3.794;2024-01-15T11:37:19;12.60;60.70
84791;DHT22;75024;43.486;3.794;2024-01-15T11:39:45;12.90;60.20
84791;DHT22;75024;43.486;3.794;2024-01-15T11:42:14;13.30;58.90
84791;DHT22;75024;43.486;3.794;2024-01-15T11:44:42;13.70;57.80
84791;DHT22;75024;43.486;3.794;2024-01-15T11:47:09;14.00;57.60
84791;DHT22;75024;43.486;3.794;2024-01-15T11:52:20;14.20;57.60
84791;DHT22;75024;43.486;3.794;2024-01-15T12:00:13;14.50;57.40
84791;DHT22;75024;43.486;3.794;2024-01-15T12:02:40;14.60;57.50
84791;DHT22;75024;43.486;3.794;2024-01-15T12:05:10;14.70;57.10
84791;DHT22;75024;43.486;3.794;2024-01-15T12:07:39;14.70;57.50
84791;DHT22;75024;43.486;3.794;2024-01-15T12:10:18;15.00;57.20
84791;DHT22;75024;43.486;3.794;2024-01-15T12:13:04;15.10;56.60
84791;DHT22;75024;43.486;3.794;2024-01-15T12:15:31;15.10;57.10
84791;DHT22;75024;43.486;3.794;2024-01-15T12:17:59;15.10;57.50
84791;DHT22;75024;43.486;3.794;2024-01-15T12:20:29;15.30;57.00
84791;DHT22;75024;43.486;3.794;2024-01-15T12:22:55;15.40;56.80
84791;DHT22;75024;43.486;3.794;2024-01-15T12:25:21;15.40;56.80
84791;DHT22;75024;43.486;3.794;2024-01-15T12:27:48;15.60;57.00
84791;DHT22;75024;43.486;3.794;2024-01-15T12:30:13;15.70;56.50
84791;DHT22;75024;43.486;3.794;2024-01-15T12:32:41;15.90;56.10
84791;DHT22;75024;43.486;3.794;2024-01-15T12:35:07;16.00;55.70
84791;DHT22;75024;43.486;3.794;2024-01-15T12:37:38;15.80;56.00
84791;DHT22;75024;43.486;3.794;2024-01-15T12:40:05;16.60;54.30
84791;DHT22;75024;43.486;3.794;2024-01-15T12:42:33;17.60;52.50
84791;DHT22;75024;43.486;3.794;2024-01-15T12:45:00;19.20;49.40
84791;DHT22;75024;43.486;3.794;2024-01-15T12:47:25;19.60;48.50
84791;DHT22;75024;43.486;3.794;2024-01-15T12:49:54;17.80;51.60
84791;DHT22;75024;43.486;3.794;2024-01-15T12:52:20;16.50;55.70
84791;DHT22;75024;43.486;3.794;2024-01-15T12:54:49;16.40;56.40
84791;DHT22;75024;43.486;3.794;2024-01-15T12:57:16;17.90;53.80
84791;DHT22;75024;43.486;3.794;2024-01-15T12:59:42;18.70;51.50
84791;DHT22;75024;43.486;3.794;2024-01-15T13:02:08;19.20;50.70
84791;DHT22;75024;43.486;3.794;2024-01-15T13:04:34;18.00;52.20
84791;DHT22;75024;43.486;3.794;2024-01-15T13:06:59;16.90;55.20
84791;DHT22;75024;43.486;3.794;2024-01-15T13:09:25;16.30;56.50
84791;DHT22;75024;43.486;3.794;2024-01-15T13:11:50;16.30;57.00
84791;DHT22;75024;43.486;3.794;2024-01-15T13:14:17;16.10;57.70
84791;DHT22;75024;43.486;3.794;2024-01-15T13:16:43;16.10;58.10
84791;DHT22;75024;43.486;3.794;2024-01-15T13:19:10;16.00;58.40
84791;DHT22;75024;43.486;3.794;2024-01-15T13:21:37;15.80;58.50
84791;DHT22;75024;43.486;3.794;2024-01-15T13:24:03;15.80;58.80
84791;DHT22;75024;43.486;3.794;2024-01-15T13:26:31;15.80;58.70
84791;DHT22;75024;43.486;3.794;2024-01-15T13:28:59;15.90;58.50
84791;DHT22;75024;43.486;3.794;2024-01-15T13:31:24;16.10;58.00
84791;DHT22;75024;43.486;3.794;2024-01-15T13:33:50;16.30;57.60
84791;DHT22;75024;43.486;3.794;2024-01-15T13:36:16;16.10;57.80
84791;DHT22;75024;43.486;3.794;2024-01-15T13:38:41;16.00;58.50
84791;DHT22;75024;43.486;3.794;2024-01-15T13:41:08;15.80;58.80
84791;DHT22;75024;43.486;3.794;2024-01-15T13:43:33;15.60;59.10
84791;DHT22;75024;43.486;3.794;2024-01-15T13:45:59;15.70;59.40
84791;DHT22;75024;43.486;3.794;2024-01-15T13:48:25;15.70;59.00
84791;DHT22;75024;43.486;3.794;2024-01-15T13:50:52;15.50;59.10
84791;DHT22;75024;43.486;3.794;2024-01-15T13:53:18;15.50;59.70
84791;DHT22;75024;43.486;3.794;2024-01-15T13:55:44;15.80;58.90
84791;DHT22;75024;43.486;3.794;2024-01-15T13:58:10;16.20;58.20
84791;DHT22;75024;43.486;3.794;2024-01-15T14:00:36;16.10;58.30
84791;DHT22;75024;43.486;3.794;2024-01-15T14:03:02;15.90;58.60
84791;DHT22;75024;43.486;3.794;2024-01-15T14:05:28;15.80;58.90
84791;DHT22;75024;43.486;3.794;2024-01-15T14:07:54;15.70;59.30
84791;DHT22;75024;43.486;3.794;2024-01-15T14:10:20;15.40;60.00
84791;DHT22;75024;43.486;3.794;2024-01-15T14:12:46;15.50;59.70
84791;DHT22;75024;43.486;3.794;2024-01-15T14:15:12;15.80;59.30
84791;DHT22;75024;43.486;3.794;2024-01-15T14:17:37;15.70;59.30
84791;DHT22;75024;43.486;3.794;2024-01-15T14:20:04;15.80;59.00
84791;DHT22;75024;43.486;3.794;2024-01-15T14:22:30;16.10;58.60
84791;DHT22;75024;43.486;3.794;2024-01-15T14:24:56;16.40;57.90
84791;DHT22;75024;43.486;3.794;2024-01-15T14:27:22;16.60;57.70
84791;DHT22;75024;43.486;3.794;2024-01-15T14:29:47;17.00;56.30
84791;DHT22;75024;43.486;3.794;2024-01-15T14:32:13;17.30;56.20
84791;DHT22;75024;43.486;3.794;2024-01-15T14:34:38;18.30;53.20
84791;DHT22;75024;43.486;3.794;2024-01-15T14:37:04;17.30;55.90
84791;DHT22;75024;43.486;3.794;2024-01-15T14:39:30;17.40;55.30
84791;DHT22;75024;43.486;3.794;2024-01-15T14:41:59;16.60;57.20
84791;DHT22;75024;43.486;3.794;2024-01-15T14:44:25;16.90;56.40
84791;DHT22;75024;43.486;3.794;2024-01-15T14:46:50;18.00;54.10
84791;DHT22;75024;43.486;3.794;2024-01-15T14:49:16;18.70;52.80
84791;DHT22;75024;43.486;3.794;2024-01-15T14:51:43;18.90;52.40
84791;DHT22;75024;43.486;3.794;2024-01-15T14:54:10;19.10;51.60
84791;DHT22;75024;43.486;3.794;2024-01-15T14:56:36;19.00;51.50
84791;DHT22;75024;43.486;3.794;2024-01-15T14:59:01;18.30;53.10
84791;DHT22;75024;43.486;3.794;2024-01-15T15:01:27;18.20;53.20
84791;DHT22;75024;43.486;3.794;2024-01-15T15:03:53;18.30;52.40
84791;DHT22;75024;43.486;3.794;2024-01-15T15:06:18;18.50;52.30
84791;DHT22;75024;43.486;3.794;2024-01-15T15:08:46;18.00;53.20
84791;DHT22;75024;43.486;3.794;2024-01-15T15:11:11;16.70;55.80
84791;DHT22;75024;43.486;3.794;2024-01-15T15:13:37;15.30;58.90
84791;DHT22;75024;43.486;3.794;2024-01-15T15:16:03;15.10;59.80
84791;DHT22;75024;43.486;3.794;2024-01-15T15:18:29;15.30;59.50
84791;DHT22;75024;43.486;3.794;2024-01-15T15:20:55;15.30;59.90
84791;DHT22;75024;43.486;3.794;2024-01-15T15:23:21;15.10;60.40
84791;DHT22;75024;43.486;3.794;2024-01-15T15:25:47;14.90;60.80
84791;DHT22;75024;43.486;3.794;2024-01-15T15:28:13;14.90;60.80
84791;DHT22;75024;43.486;3.794;2024-01-15T15:30:40;15.00;60.40
84791;DHT22;75024;43.486;3.794;2024-01-15T15:33:05;14.90;60.90
84791;DHT22;75024;43.486;3.794;2024-01-15T15:35:31;14.80;61.10
84791;DHT22;75024;43.486;3.794;2024-01-15T15:37:57;14.60;61.20
84791;DHT22;75024;43.486;3.794;2024-01-15T15:40:23;14.50;61.50
84791;DHT22;75024;43.486;3.794;2024-01-15T15:42:52;14.40;62.00